createdAt,value
2023-07-01T00:04:27.055Z,31.60
2023-07-01T00:09:31.326Z,29.60
2023-07-01T00:14:35.156Z,27.50
2023-07-01T00:19:39.020Z,39.30
2023-07-01T00:24:42.915Z,33.90
2023-07-01T00:29:46.663Z,42.40
2023-07-01T00:34:50.465Z,424.20
2023-07-01T00:39:55.224Z,629.10
2023-07-01T00:44:59.891Z,347.60
2023-07-01T00:50:04.302Z,131.00
2023-07-01T00:55:10.971Z,172.90
2023-07-01T01:00:15.849Z,42.30
2023-07-01T01:05:25.247Z,39.60
2023-07-01T01:10:29.770Z,37.50
2023-07-01T01:15:33.844Z,31.60
2023-07-01T01:20:40.568Z,39.40
2023-07-01T01:25:57.083Z,44.60
2023-07-01T01:31:03.050Z,46.60
2023-07-01T01:36:11.792Z,48.10
2023-07-01T01:41:26.889Z,43.50
2023-07-01T01:46:32.007Z,57.40
2023-07-01T01:51:37.781Z,50.50
2023-07-01T01:56:42.765Z,51.50
2023-07-01T02:01:47.339Z,48.80
2023-07-01T02:06:51.636Z,52.90
2023-07-01T02:11:56.243Z,45.10
2023-07-01T02:17:00.224Z,41.60
2023-07-01T02:22:05.148Z,44.70
2023-07-01T02:27:09.850Z,46.40
2023-07-01T02:32:13.607Z,45.70
2023-07-01T02:37:17.466Z,37.60
2023-07-01T02:42:21.955Z,35.80
2023-07-01T02:47:25.628Z,44.00
2023-07-01T02:52:29.668Z,34.70
2023-07-01T02:57:33.507Z,42.30
2023-07-01T03:02:37.442Z,43.10
2023-07-01T03:07:41.186Z,35.50
2023-07-01T03:12:44.907Z,32.90
2023-07-01T03:17:51.874Z,34.20
2023-07-01T03:22:58.387Z,37.20
2023-07-01T03:28:02.400Z,37.40
2023-07-01T03:33:07.873Z,35.30
2023-07-01T03:38:11.946Z,32.60
2023-07-01T03:43:16.425Z,28.00
2023-07-01T03:48:20.103Z,27.60
2023-07-01T03:53:23.910Z,28.30
2023-07-01T03:58:27.753Z,33.60
2023-07-01T04:03:31.926Z,29.20
2023-07-01T04:08:35.915Z,28.50
2023-07-01T04:13:39.737Z,31.90
2023-07-01T04:18:43.441Z,31.80
2023-07-01T04:23:47.307Z,27.20
2023-07-01T04:28:51.105Z,31.20
2023-07-01T04:33:55.988Z,31.90
2023-07-01T04:39:00.475Z,31.90
2023-07-01T04:44:04.858Z,33.20
2023-07-01T04:49:10.515Z,33.50
2023-07-01T04:54:14.346Z,31.50
2023-07-01T04:59:18.148Z,31.90
2023-07-01T05:04:22.118Z,35.90
2023-07-01T05:09:25.911Z,35.80
2023-07-01T05:14:29.539Z,35.80
2023-07-01T05:19:33.461Z,34.20
2023-07-01T05:24:37.511Z,33.80
2023-07-01T05:29:41.432Z,34.90
2023-07-01T05:34:45.258Z,30.40
2023-07-01T05:39:49.033Z,30.10
2023-07-01T05:44:52.862Z,32.90
2023-07-01T05:49:56.638Z,28.50
2023-07-01T05:55:00.369Z,27.80
2023-07-01T06:00:06.238Z,31.30
2023-07-01T06:05:15.626Z,30.80
2023-07-01T06:10:19.383Z,28.60
2023-07-01T06:15:23.172Z,27.00
2023-07-01T06:20:27.022Z,25.80
2023-07-01T06:25:30.925Z,25.60
2023-07-01T06:30:34.930Z,26.50
2023-07-01T06:35:43.298Z,23.10
2023-07-01T06:40:47.719Z,26.60
2023-07-01T06:45:53.430Z,25.70
2023-07-01T06:50:57.257Z,28.00
2023-07-01T06:56:01.130Z,23.20
2023-07-01T07:01:05.243Z,26.70
2023-07-01T07:06:11.369Z,26.00
2023-07-01T07:11:15.297Z,23.80
2023-07-01T07:16:19.237Z,23.20
2023-07-01T07:21:23.143Z,20.00
2023-07-01T07:26:26.925Z,20.10
2023-07-01T07:31:30.814Z,21.50
2023-07-01T07:36:34.572Z,20.00
2023-07-01T07:41:38.252Z,20.20
2023-07-01T07:46:46.559Z,22.00
2023-07-01T07:51:53.029Z,19.50
2023-07-01T07:57:00.712Z,21.10
2023-07-01T08:02:05.013Z,19.70
2023-07-01T08:07:09.473Z,18.80
2023-07-01T08:12:13.252Z,20.10
2023-07-01T08:17:17.155Z,20.50
2023-07-01T08:22:22.114Z,18.60
2023-07-01T08:27:26.000Z,19.40
2023-07-01T08:32:30.004Z,18.00
2023-07-01T08:37:34.377Z,18.70
2023-07-01T08:43:00.627Z,16.20
2023-07-01T08:48:06.916Z,17.10
2023-07-01T08:53:11.982Z,15.10
2023-07-01T08:58:16.401Z,16.80
2023-07-01T09:03:21.408Z,16.80
2023-07-01T09:08:25.184Z,17.00
2023-07-01T09:13:31.490Z,16.30
2023-07-01T09:18:36.259Z,17.30
2023-07-01T09:23:40.063Z,16.40
2023-07-01T09:28:46.123Z,17.80
2023-07-01T09:34:04.774Z,17.30
2023-07-01T09:39:08.683Z,16.20
2023-07-01T09:44:18.061Z,16.20
2023-07-01T09:49:22.017Z,16.50
2023-07-01T09:54:30.406Z,19.20
2023-07-01T09:59:34.218Z,19.00
2023-07-01T10:04:40.124Z,15.70
2023-07-01T10:09:45.470Z,18.50
2023-07-01T10:14:52.523Z,19.70
2023-07-01T10:19:57.158Z,18.40
2023-07-01T10:25:07.378Z,17.70
2023-07-01T10:30:14.965Z,15.90
2023-07-01T10:35:19.033Z,17.00
2023-07-01T10:40:31.968Z,13.30
2023-07-01T10:45:39.082Z,16.30
2023-07-01T10:51:06.519Z,11.70
2023-07-01T10:56:13.101Z,15.00
2023-07-01T11:01:42.908Z,14.40
2023-07-01T11:06:54.304Z,15.50
2023-07-01T11:11:58.868Z,13.00
2023-07-01T11:17:17.300Z,13.70
2023-07-01T11:22:21.420Z,13.10
2023-07-01T11:27:25.257Z,17.40
2023-07-01T11:32:29.121Z,14.70
2023-07-01T11:37:33.170Z,13.20
2023-07-01T11:42:37.491Z,15.30
2023-07-01T11:47:47.597Z,15.40
2023-07-01T11:57:55.109Z,14.70
2023-07-01T12:02:58.933Z,20.00
2023-07-01T12:08:02.905Z,14.50
2023-07-01T12:13:07.612Z,12.70
2023-07-01T12:18:26.238Z,12.20
2023-07-01T12:23:30.360Z,13.80
2023-07-01T12:28:34.232Z,12.00
2023-07-01T12:33:38.584Z,11.90
2023-07-01T12:38:42.846Z,15.30
2023-07-01T12:43:49.177Z,13.30
2023-07-01T12:48:52.959Z,12.30
2023-07-01T12:54:15.031Z,12.30
2023-07-01T12:59:23.264Z,12.20
2023-07-01T13:04:30.862Z,22.90
2023-07-01T13:09:44.535Z,14.20
2023-07-01T13:14:48.276Z,13.90
2023-07-01T13:19:53.924Z,12.50
2023-07-01T13:24:57.844Z,12.90
2023-07-01T13:30:02.365Z,12.10
2023-07-01T13:35:07.443Z,14.80
2023-07-01T13:40:12.561Z,13.50
2023-07-01T13:45:28.058Z,15.50
2023-07-01T13:50:31.915Z,11.00
2023-07-01T13:55:35.809Z,15.10
2023-07-01T14:00:42.404Z,20.10
2023-07-01T14:05:47.353Z,15.10
2023-07-01T14:10:51.946Z,13.20
2023-07-01T14:15:57.122Z,13.60
2023-07-01T14:21:06.809Z,12.00
2023-07-01T14:26:18.419Z,14.80
2023-07-01T14:31:31.956Z,13.50
2023-07-01T14:36:44.881Z,15.10
2023-07-01T14:41:51.720Z,11.40
2023-07-01T14:46:55.900Z,12.90
2023-07-01T14:52:00.112Z,12.00
2023-07-01T14:57:05.081Z,13.40
2023-07-01T15:02:09.207Z,12.10
2023-07-01T15:07:13.359Z,13.20
2023-07-01T15:12:19.205Z,11.80
2023-07-01T15:17:23.376Z,14.20
2023-07-01T15:22:27.049Z,11.20
2023-07-01T15:27:30.839Z,12.40
2023-07-01T15:32:35.062Z,9.70
2023-07-01T15:37:38.832Z,8.10
2023-07-01T15:42:44.306Z,7.70
2023-07-01T15:47:49.331Z,5.30
2023-07-01T15:52:53.218Z,8.00
2023-07-01T15:57:56.946Z,5.70
2023-07-01T16:03:00.844Z,6.90
2023-07-01T16:08:06.821Z,6.90
2023-07-01T16:13:38.030Z,6.60
2023-07-01T16:18:46.655Z,9.20
2023-07-01T16:23:55.714Z,7.40
2023-07-01T16:28:59.784Z,7.00
2023-07-01T16:34:09.868Z,5.30
2023-07-01T16:39:13.676Z,7.50
2023-07-01T16:44:17.476Z,5.10
2023-07-01T16:49:21.405Z,6.40
2023-07-01T16:54:39.246Z,7.20
2023-07-01T16:59:47.258Z,7.20
2023-07-01T17:04:51.409Z,5.60
2023-07-01T17:09:55.441Z,6.00
2023-07-01T17:15:00.993Z,7.90
2023-07-01T17:20:10.524Z,6.10
2023-07-01T17:25:14.617Z,7.90
2023-07-01T17:30:18.376Z,7.00
2023-07-01T17:35:24.641Z,6.20
2023-07-01T17:40:28.771Z,11.20
2023-07-01T17:45:32.679Z,7.40
2023-07-01T17:50:39.591Z,8.70
2023-07-01T17:55:44.159Z,6.30
2023-07-01T18:00:52.477Z,10.40
2023-07-01T18:05:56.993Z,6.20
2023-07-01T18:11:00.823Z,5.90
2023-07-01T18:16:05.047Z,5.70
2023-07-01T18:21:09.223Z,5.20
2023-07-01T18:26:13.054Z,7.40
2023-07-01T18:31:18.928Z,7.30
2023-07-01T18:36:23.065Z,12.20
2023-07-01T18:41:27.436Z,11.70
2023-07-01T18:46:32.812Z,10.10
2023-07-01T18:51:37.206Z,8.90
2023-07-01T18:56:42.246Z,8.40
2023-07-01T19:01:46.317Z,12.20
2023-07-01T19:06:50.760Z,8.00
2023-07-01T19:11:56.007Z,8.50
2023-07-01T19:17:00.379Z,8.50
2023-07-01T19:22:05.194Z,15.50
2023-07-01T19:27:09.211Z,8.50
2023-07-01T19:32:14.573Z,6.70
2023-07-01T19:37:18.729Z,9.50
2023-07-01T19:42:25.516Z,9.00
2023-07-01T19:47:30.593Z,8.70
2023-07-01T19:52:41.485Z,9.70
2023-07-01T19:57:45.629Z,7.80
2023-07-01T20:02:50.328Z,7.40
2023-07-01T20:07:55.238Z,9.00
2023-07-01T20:13:04.697Z,9.10
2023-07-01T20:18:09.016Z,7.50
2023-07-01T20:23:13.949Z,9.80
2023-07-01T20:28:32.570Z,13.40
2023-07-01T20:33:40.649Z,10.50
2023-07-01T20:38:44.573Z,9.80
2023-07-01T20:43:48.884Z,9.70
2023-07-01T20:48:53.090Z,8.90
2023-07-01T20:53:57.762Z,10.40
2023-07-01T20:59:01.694Z,12.60
2023-07-01T21:04:06.089Z,11.00
2023-07-01T21:09:16.540Z,8.60
2023-07-01T21:14:20.704Z,9.10
2023-07-01T21:19:25.050Z,11.10
2023-07-01T21:24:29.126Z,10.30
2023-07-01T21:29:32.958Z,11.50
2023-07-01T21:34:36.727Z,10.00
2023-07-01T21:39:40.448Z,13.20
2023-07-01T21:44:44.297Z,14.40
2023-07-01T21:49:48.053Z,13.30
2023-07-01T21:54:51.890Z,12.10
2023-07-01T21:59:55.645Z,12.20
2023-07-01T22:04:59.357Z,13.60
2023-07-01T22:10:03.144Z,11.60
2023-07-01T22:15:07.745Z,12.20
2023-07-01T22:20:11.883Z,13.90
2023-07-01T22:25:15.683Z,11.60
2023-07-01T22:30:20.227Z,12.90
2023-07-01T22:35:24.144Z,9.80
2023-07-01T22:40:27.944Z,10.40
2023-07-01T22:45:31.716Z,12.50
2023-07-01T22:50:36.451Z,15.20
2023-07-01T22:55:40.582Z,11.00
2023-07-01T23:00:45.085Z,10.10
2023-07-01T23:05:49.255Z,9.10
2023-07-01T23:10:53.752Z,11.30
2023-07-01T23:15:57.612Z,8.30
2023-07-01T23:21:01.815Z,14.70
2023-07-01T23:26:05.636Z,9.30
2023-07-01T23:31:09.711Z,13.90
2023-07-01T23:36:13.514Z,10.90
2023-07-01T23:41:17.498Z,13.10
2023-07-01T23:46:21.230Z,13.00
2023-07-01T23:51:24.918Z,12.30
2023-07-01T23:56:28.793Z,11.90
